sensor_id;sensor_type;location;lat;lon;timestamp;pressure;altitude;pressure_sealevel;temperature;humidity
56270;BME280;42176;43.240;27.880;2023-02-23T00:01:56;100274.16;;;5.46;100.00
56270;BME280;42176;43.240;27.880;2023-02-23T00:04:23;100272.44;;;5.44;100.00
56270;BME280;42176;43.240;27.880;2023-02-23T00:06:50;100281.19;;;5.55;100.00
56270;BME280;42176;43.240;27.880;2023-02-23T00:09:18;100279.44;;;5.88;100.00
56270;BME280;42176;43.240;27.880;2023-02-23T00:11:51;100282.06;;;5.46;100.00
56270;BME280;42176;43.240;27.880;2023-02-23T00:14:17;100284.72;;;5.57;100.00
56270;BME280;42176;43.240;27.880;2023-02-23T00:16:43;100273.31;;;5.68;100.00
56270;BME280;42176;43.240;27.880;2023-02-23T00:19:10;100275.94;;;5.74;100.00
56270;BME280;42176;43.240;27.880;2023-02-23T00:21:39;100280.31;;;5.81;100.00
56270;BME280;42176;43.240;27.880;2023-02-23T00:24:10;100262.78;;;5.82;100.00
56270;BME280;42176;43.240;27.880;2023-02-23T00:26:37;100256.63;;;5.93;100.00
56270;BME280;42176;43.240;27.880;2023-02-23T00:29:09;100273.28;;;5.49;100.00
56270;BME280;42176;43.240;27.880;2023-02-23T00:31:35;100278.56;;;5.58;100.00
56270;BME280;42176;43.240;27.880;2023-02-23T00:34:02;100280.31;;;5.64;100.00
56270;BME280;42176;43.240;27.880;2023-02-23T00:36:31;100272.44;;;6.15;100.00
56270;BME280;42176;43.240;27.880;2023-02-23T00:39:00;100279.44;;;5.57;100.00
56270;BME280;42176;43.240;27.880;2023-02-23T00:41:26;100275.03;;;5.62;100.00
56270;BME280;42176;43.240;27.880;2023-02-23T00:43:59;100275.91;;;5.77;100.00
56270;BME280;42176;43.240;27.880;2023-02-23T00:46:27;100267.19;;;5.87;100.00
56270;BME280;42176;43.240;27.880;2023-02-23T00:48:54;100273.31;;;6.08;100.00
56270;BME280;42176;43.240;27.880;2023-02-23T00:51:20;100268.94;;;5.60;100.00
56270;BME280;42176;43.240;27.880;2023-02-23T00:53:46;100267.19;;;5.72;100.00
56270;BME280;42176;43.240;27.880;2023-02-23T00:56:13;100264.53;;;5.84;100.00
56270;BME280;42176;43.240;27.880;2023-02-23T00:58:40;100266.28;;;5.94;100.00
56270;BME280;42176;43.240;27.880;2023-02-23T01:01:10;100260.16;;;5.89;100.00
56270;BME280;42176;43.240;27.880;2023-02-23T01:03:37;100266.28;;;5.45;100.00
56270;BME280;42176;43.240;27.880;2023-02-23T01:06:05;100274.16;;;5.56;100.00
56270;BME280;42176;43.240;27.880;2023-02-23T01:08:32;100274.19;;;5.67;100.00
56270;BME280;42176;43.240;27.880;2023-02-23T01:10:58;100260.13;;;5.92;100.00
56270;BME280;42176;43.240;27.880;2023-02-23T01:13:29;100253.13;;;5.48;100.00
56270;BME280;42176;43.240;27.880;2023-02-23T01:15:55;100260.13;;;5.61;100.00
56270;BME280;42176;43.240;27.880;2023-02-23T01:18:21;100254.91;;;5.71;100.00
56270;BME280;42176;43.240;27.880;2023-02-23T01:20:46;100237.34;;;5.88;100.00
56270;BME280;42176;43.240;27.880;2023-02-23T01:23:13;100247.00;;;5.51;100.00
56270;BME280;42176;43.240;27.880;2023-02-23T01:25:40;100244.38;;;5.61;100.00
56270;BME280;42176;43.240;27.880;2023-02-23T01:28:07;100249.63;;;5.61;100.00
56270;BME280;42176;43.240;27.880;2023-02-23T01:30:33;100232.97;;;5.69;100.00
56270;BME280;42176;43.240;27.880;2023-02-23T01:32:59;100243.50;;;5.69;100.00
56270;BME280;42176;43.240;27.880;2023-02-23T01:35:27;100225.97;;;5.66;100.00
56270;BME280;42176;43.240;27.880;2023-02-23T01:37:52;100240.88;;;5.69;100.00
56270;BME280;42176;43.240;27.880;2023-02-23T01:40:20;100246.13;;;5.50;100.00
56270;BME280;42176;43.240;27.880;2023-02-23T01:43:09;100246.13;;;5.53;100.00
56270;BME280;42176;43.240;27.880;2023-02-23T01:45:37;100240.88;;;5.75;100.00
56270;BME280;42176;43.240;27.880;2023-02-23T01:48:17;100249.63;;;5.43;100.00
56270;BME280;42176;43.240;27.880;2023-02-23T01:50:51;100250.50;;;5.46;100.00
56270;BME280;42176;43.240;27.880;2023-02-23T01:53:18;100255.78;;;5.49;100.00
56270;BME280;42176;43.240;27.880;2023-02-23T01:55:49;100256.66;;;5.72;100.00
56270;BME280;42176;43.240;27.880;2023-02-23T01:58:21;100253.09;;;5.23;100.00
56270;BME280;42176;43.240;27.880;2023-02-23T02:00:56;100261.00;;;5.36;100.00
56270;BME280;42176;43.240;27.880;2023-02-23T02:03:53;100274.19;;;5.54;100.00
56270;BME280;42176;43.240;27.880;2023-02-23T02:06:22;100271.53;;;5.79;100.00
56270;BME280;42176;43.240;27.880;2023-02-23T02:08:51;100258.38;;;5.39;100.00
56270;BME280;42176;43.240;27.880;2023-02-23T02:11:20;100273.28;;;5.54;100.00
56270;BME280;42176;43.240;27.880;2023-02-23T02:14:12;100281.19;;;5.63;100.00
56270;BME280;42176;43.240;27.880;2023-02-23T02:19:57;100275.06;;;5.58;100.00
56270;BME280;42176;43.240;27.880;2023-02-23T02:41:39;100282.06;;;5.54;100.00
56270;BME280;42176;43.240;27.880;2023-02-23T02:44:14;100248.75;;;5.61;100.00
56270;BME280;42176;43.240;27.880;2023-02-23T02:46:47;100286.44;;;5.92;100.00
56270;BME280;42176;43.240;27.880;2023-02-23T02:49:44;100284.72;;;6.16;100.00
56270;BME280;42176;43.240;27.880;2023-02-23T02:52:40;100275.03;;;6.24;100.00
56270;BME280;42176;43.240;27.880;2023-02-23T02:55:13;100279.41;;;6.32;100.00
56270;BME280;42176;43.240;27.880;2023-02-23T02:57:42;100289.06;;;6.40;100.00
56270;BME280;42176;43.240;27.880;2023-02-23T03:00:22;100282.84;;;6.55;100.00
56270;BME280;42176;43.240;27.880;2023-02-23T03:03:45;100286.31;;;6.76;100.00
56270;BME280;42176;43.240;27.880;2023-02-23T03:06:35;100285.56;;;5.70;100.00
56270;BME280;42176;43.240;27.880;2023-02-23T03:10:01;100288.19;;;5.97;100.00
56270;BME280;42176;43.240;27.880;2023-02-23T03:19:02;100298.72;;;5.62;100.00
56270;BME280;42176;43.240;27.880;2023-02-23T03:24:59;100293.47;;;5.97;100.00
56270;BME280;42176;43.240;27.880;2023-02-23T03:30:47;100302.25;;;5.71;100.00
56270;BME280;42176;43.240;27.880;2023-02-23T03:33:42;100304.00;;;5.84;100.00
56270;BME280;42176;43.240;27.880;2023-02-23T03:36:32;100305.78;;;6.22;100.00
56270;BME280;42176;43.240;27.880;2023-02-23T03:39:20;100300.47;;;5.63;100.00
56270;BME280;42176;43.240;27.880;2023-02-23T03:42:11;100299.59;;;5.85;100.00
56270;BME280;42176;43.240;27.880;2023-02-23T03:45:03;100301.38;;;6.01;100.00
56270;BME280;42176;43.240;27.880;2023-02-23T03:47:49;100298.75;;;6.12;100.00
56270;BME280;42176;43.240;27.880;2023-02-23T03:50:49;100303.97;;;6.35;100.00
56270;BME280;42176;43.240;27.880;2023-02-23T03:53:41;100318.03;;;5.74;100.00
56270;BME280;42176;43.240;27.880;2023-02-23T03:56:29;100310.16;;;5.89;100.00
56270;BME280;42176;43.240;27.880;2023-02-23T03:59:20;100291.72;;;6.11;100.00
56270;BME280;42176;43.240;27.880;2023-02-23T04:02:05;100316.28;;;5.76;100.00
56270;BME280;42176;43.240;27.880;2023-02-23T04:04:53;100314.50;;;5.93;100.00
56270;BME280;42176;43.240;27.880;2023-02-23T04:07:39;100318.94;;;6.05;100.00
56270;BME280;42176;43.240;27.880;2023-02-23T04:10:25;100325.88;;;6.47;100.00
56270;BME280;42176;43.240;27.880;2023-02-23T04:13:20;100312.75;;;5.80;100.00
56270;BME280;42176;43.240;27.880;2023-02-23T04:16:00;100318.94;;;6.02;100.00
56270;BME280;42176;43.240;27.880;2023-02-23T04:18:32;100307.53;;;6.02;100.00
56270;BME280;42176;43.240;27.880;2023-02-23T04:20:59;100318.91;;;6.21;100.00
56270;BME280;42176;43.240;27.880;2023-02-23T04:23:25;100316.28;;;6.25;100.00
56270;BME280;42176;43.240;27.880;2023-02-23T04:25:52;100316.25;;;6.47;100.00
56270;BME280;42176;43.240;27.880;2023-02-23T04:28:19;100317.13;;;6.54;100.00
56270;BME280;42176;43.240;27.880;2023-02-23T04:30:45;100334.66;;;6.49;100.00
56270;BME280;42176;43.240;27.880;2023-02-23T04:33:10;100322.41;;;6.45;100.00
56270;BME280;42176;43.240;27.880;2023-02-23T04:35:36;100320.69;;;5.89;100.00
56270;BME280;42176;43.240;27.880;2023-02-23T04:38:02;100318.94;;;6.16;100.00
56270;BME280;42176;43.240;27.880;2023-02-23T04:40:27;100328.56;;;6.33;100.00
56270;BME280;42176;43.240;27.880;2023-02-23T04:42:53;100326.78;;;6.47;100.00
56270;BME280;42176;43.240;27.880;2023-02-23T04:45:20;100328.56;;;5.74;100.00
56270;BME280;42176;43.240;27.880;2023-02-23T04:47:46;100328.56;;;5.95;100.00
56270;BME280;42176;43.240;27.880;2023-02-23T04:50:12;100329.47;;;6.19;100.00
56270;BME280;42176;43.240;27.880;2023-02-23T04:52:38;100335.59;;;6.31;99.42
56270;BME280;42176;43.240;27.880;2023-02-23T04:55:05;100333.81;;;6.44;94.72
56270;BME280;42176;43.240;27.880;2023-02-23T04:57:32;100332.09;;;6.02;98.21
56270;BME280;42176;43.240;27.880;2023-02-23T04:59:58;100325.97;;;6.20;96.64
56270;BME280;42176;43.240;27.880;2023-02-23T05:02:23;100325.91;;;6.39;96.16
56270;BME280;42176;43.240;27.880;2023-02-23T05:04:49;100333.78;;;6.59;95.88
56270;BME280;42176;43.240;27.880;2023-02-23T05:07:15;100342.50;;;6.78;93.93
56270;BME280;42176;43.240;27.880;2023-02-23T05:09:40;100342.41;;;7.03;95.67
56270;BME280;42176;43.240;27.880;2023-02-23T05:12:06;100353.00;;;6.97;95.30
56270;BME280;42176;43.240;27.880;2023-02-23T05:14:31;100359.25;;;5.95;100.00
56270;BME280;42176;43.240;27.880;2023-02-23T05:16:57;100356.66;;;6.12;100.00
56270;BME280;42176;43.240;27.880;2023-02-23T05:19:22;100351.34;;;6.40;100.00
56270;BME280;42176;43.240;27.880;2023-02-23T05:21:48;100361.00;;;6.60;100.00
56270;BME280;42176;43.240;27.880;2023-02-23T05:24:15;100363.63;;;6.57;100.00
56270;BME280;42176;43.240;27.880;2023-02-23T05:26:42;100354.88;;;5.89;100.00
56270;BME280;42176;43.240;27.880;2023-02-23T05:29:07;100388.22;;;6.24;100.00
56270;BME280;42176;43.240;27.880;2023-02-23T05:31:33;100382.97;;;6.46;100.00
56270;BME280;42176;43.240;27.880;2023-02-23T05:33:59;100375.00;;;5.64;100.00
56270;BME280;42176;43.240;27.880;2023-02-23T05:36:24;100389.13;;;6.06;100.00
56270;BME280;42176;43.240;27.880;2023-02-23T05:38:50;100391.75;;;6.36;100.00
56270;BME280;42176;43.240;27.880;2023-02-23T05:41:18;100395.25;;;6.10;100.00
56270;BME280;42176;43.240;27.880;2023-02-23T05:43:44;100393.50;;;6.15;100.00
56270;BME280;42176;43.240;27.880;2023-02-23T05:46:14;100419.81;;;6.59;100.00
56270;BME280;42176;43.240;27.880;2023-02-23T05:48:40;100411.03;;;6.69;100.00
56270;BME280;42176;43.240;27.880;2023-02-23T05:51:08;100418.94;;;6.02;100.00
56270;BME280;42176;43.240;27.880;2023-02-23T05:53:35;100416.31;;;6.41;100.00
56270;BME280;42176;43.240;27.880;2023-02-23T05:56:02;100412.78;;;6.73;100.00
56270;BME280;42176;43.240;27.880;2023-02-23T05:58:28;100414.56;;;6.68;100.00
56270;BME280;42176;43.240;27.880;2023-02-23T06:00:54;100419.84;;;6.34;100.00
56270;BME280;42176;43.240;27.880;2023-02-23T06:03:20;100435.63;;;6.62;100.00
56270;BME280;42176;43.240;27.880;2023-02-23T06:05:54;100411.88;;;6.82;100.00
56270;BME280;42176;43.240;27.880;2023-02-23T06:08:20;100409.31;;;6.28;100.00
56270;BME280;42176;43.240;27.880;2023-02-23T06:10:46;100430.38;;;6.52;100.00
56270;BME280;42176;43.240;27.880;2023-02-23T06:13:12;100432.97;;;6.83;100.00
56270;BME280;42176;43.240;27.880;2023-02-23T06:15:38;100412.69;;;7.13;100.00
56270;BME280;42176;43.240;27.880;2023-02-23T06:18:04;100433.63;;;7.47;100.00
56270;BME280;42176;43.240;27.880;2023-02-23T06:20:30;100437.34;;;6.91;100.00
56270;BME280;42176;43.240;27.880;2023-02-23T06:22:56;100442.50;;;7.26;100.00
56270;BME280;42176;43.240;27.880;2023-02-23T06:25:22;100435.44;;;7.42;100.00
56270;BME280;42176;43.240;27.880;2023-02-23T06:27:48;100434.69;;;6.98;100.00
56270;BME280;42176;43.240;27.880;2023-02-23T06:30:13;100423.28;;;6.98;100.00
56270;BME280;42176;43.240;27.880;2023-02-23T06:32:39;100442.53;;;7.28;100.00
56270;BME280;42176;43.240;27.880;2023-02-23T06:35:05;100448.56;;;7.58;100.00
56270;BME280;42176;43.240;27.880;2023-02-23T06:37:31;100450.25;;;7.70;100.00
56270;BME280;42176;43.240;27.880;2023-02-23T06:39:57;100449.28;;;7.85;100.00
56270;BME280;42176;43.240;27.880;2023-02-23T06:42:22;100452.72;;;7.99;100.00
56270;BME280;42176;43.240;27.880;2023-02-23T06:44:48;100449.09;;;8.13;100.00
56270;BME280;42176;43.240;27.880;2023-02-23T06:47:14;100457.56;;;8.61;100.00
56270;BME280;42176;43.240;27.880;2023-02-23T06:49:39;100460.06;;;8.78;100.00
56270;BME280;42176;43.240;27.880;2023-02-23T06:52:06;100445.19;;;8.70;100.00
56270;BME280;42176;43.240;27.880;2023-02-23T06:54:31;100465.44;;;8.71;100.00
56270;BME280;42176;43.240;27.880;2023-02-23T06:56:58;100467.81;;;8.95;100.00
56270;BME280;42176;43.240;27.880;2023-02-23T06:59:24;100466.84;;;9.04;100.00
56270;BME280;42176;43.240;27.880;2023-02-23T07:01:50;100474.19;;;8.74;100.00
56270;BME280;42176;43.240;27.880;2023-02-23T07:04:15;100458.50;;;8.56;100.00
56270;BME280;42176;43.240;27.880;2023-02-23T07:06:41;100454.94;;;8.63;100.00
56270;BME280;42176;43.240;27.880;2023-02-23T07:09:06;100471.47;;;8.82;100.00
56270;BME280;42176;43.240;27.880;2023-02-23T07:11:32;100472.75;;;9.29;100.00
56270;BME280;42176;43.240;27.880;2023-02-23T07:13:58;100480.91;;;9.84;98.95
56270;BME280;42176;43.240;27.880;2023-02-23T07:16:24;100484.44;;;9.83;97.54
56270;BME280;42176;43.240;27.880;2023-02-23T07:18:51;100502.59;;;10.13;94.28
56270;BME280;42176;43.240;27.880;2023-02-23T07:21:17;100493.41;;;9.73;95.39
56270;BME280;42176;43.240;27.880;2023-02-23T07:23:42;100487.34;;;9.63;95.76
56270;BME280;42176;43.240;27.880;2023-02-23T07:26:08;100495.47;;;9.49;95.68
56270;BME280;42176;43.240;27.880;2023-02-23T07:28:34;100475.41;;;9.29;95.99
56270;BME280;42176;43.240;27.880;2023-02-23T07:30:59;100488.88;;;9.05;98.55
56270;BME280;42176;43.240;27.880;2023-02-23T07:33:24;100485.00;;;9.37;98.15
56270;BME280;42176;43.240;27.880;2023-02-23T07:35:50;100483.41;;;9.23;97.16
56270;BME280;42176;43.240;27.880;2023-02-23T07:38:17;100481.59;;;9.28;96.44
56270;BME280;42176;43.240;27.880;2023-02-23T07:40:42;100477.03;;;9.41;96.00
56270;BME280;42176;43.240;27.880;2023-02-23T07:43:08;100484.13;;;9.38;94.03
56270;BME280;42176;43.240;27.880;2023-02-23T07:45:33;100491.38;;;9.19;94.30
56270;BME280;42176;43.240;27.880;2023-02-23T07:47:59;100485.09;;;8.28;98.24
56270;BME280;42176;43.240;27.880;2023-02-23T07:50:25;100493.31;;;7.76;100.00
56270;BME280;42176;43.240;27.880;2023-02-23T07:52:50;100500.19;;;8.08;100.00
56270;BME280;42176;43.240;27.880;2023-02-23T07:55:17;100507.16;;;8.19;100.00
56270;BME280;42176;43.240;27.880;2023-02-23T07:57:42;100487.69;;;8.35;100.00
56270;BME280;42176;43.240;27.880;2023-02-23T08:00:09;100502.25;;;8.91;100.00
56270;BME280;42176;43.240;27.880;2023-02-23T08:02:35;100504.16;;;8.76;99.76
56270;BME280;42176;43.240;27.880;2023-02-23T08:05:00;100518.78;;;7.87;100.00
56270;BME280;42176;43.240;27.880;2023-02-23T08:07:26;100505.28;;;8.40;100.00
56270;BME280;42176;43.240;27.880;2023-02-23T08:09:51;100494.53;;;8.67;100.00
56270;BME280;42176;43.240;27.880;2023-02-23T08:12:17;100506.78;;;8.76;98.71
56270;BME280;42176;43.240;27.880;2023-02-23T08:14:43;100519.50;;;8.17;100.00
56270;BME280;42176;43.240;27.880;2023-02-23T08:17:09;100518.47;;;8.38;100.00
56270;BME280;42176;43.240;27.880;2023-02-23T08:19:35;100515.72;;;8.58;100.00
56270;BME280;42176;43.240;27.880;2023-02-23T08:22:02;100522.50;;;8.93;97.87
56270;BME280;42176;43.240;27.880;2023-02-23T08:24:28;100520.06;;;9.57;93.84
56270;BME280;42176;43.240;27.880;2023-02-23T08:26:57;100525.59;;;9.36;93.79
56270;BME280;42176;43.240;27.880;2023-02-23T08:29:23;100520.28;;;9.39;92.86
56270;BME280;42176;43.240;27.880;2023-02-23T08:31:49;100552.81;;;9.45;94.12
56270;BME280;42176;43.240;27.880;2023-02-23T08:34:16;100545.66;;;9.58;91.03
56270;BME280;42176;43.240;27.880;2023-02-23T08:36:41;100545.78;;;9.44;92.01
56270;BME280;42176;43.240;27.880;2023-02-23T08:39:09;100545.09;;;9.28;89.79
56270;BME280;42176;43.240;27.880;2023-02-23T08:41:35;100543.72;;;8.84;88.78
56270;BME280;42176;43.240;27.880;2023-02-23T08:44:01;100543.53;;;9.04;87.96
56270;BME280;42176;43.240;27.880;2023-02-23T08:46:26;100565.94;;;9.59;85.06
56270;BME280;42176;43.240;27.880;2023-02-23T08:48:52;100550.00;;;9.63;82.73
56270;BME280;42176;43.240;27.880;2023-02-23T08:51:17;100556.88;;;9.78;81.31
56270;BME280;42176;43.240;27.880;2023-02-23T08:53:43;100552.16;;;10.03;77.85
56270;BME280;42176;43.240;27.880;2023-02-23T08:56:09;100571.41;;;9.41;81.53
56270;BME280;42176;43.240;27.880;2023-02-23T08:58:35;100543.38;;;9.21;85.73
56270;BME280;42176;43.240;27.880;2023-02-23T09:01:02;100578.88;;;8.95;85.39
56270;BME280;42176;43.240;27.880;2023-02-23T09:03:28;100557.59;;;9.08;89.95
56270;BME280;42176;43.240;27.880;2023-02-23T09:05:56;100555.72;;;9.22;89.84
56270;BME280;42176;43.240;27.880;2023-02-23T09:08:22;100575.44;;;8.87;89.85
56270;BME280;42176;43.240;27.880;2023-02-23T09:10:47;100585.16;;;8.82;90.92
56270;BME280;42176;43.240;27.880;2023-02-23T09:13:13;100587.81;;;8.82;89.41
56270;BME280;42176;43.240;27.880;2023-02-23T09:15:40;100586.13;;;8.72;90.72
56270;BME280;42176;43.240;27.880;2023-02-23T09:18:06;100577.94;;;9.03;89.87
56270;BME280;42176;43.240;27.880;2023-02-23T09:20:32;100580.31;;;9.34;88.58
56270;BME280;42176;43.240;27.880;2023-02-23T09:22:58;100587.22;;;9.47;88.46
56270;BME280;42176;43.240;27.880;2023-02-23T09:25:24;100575.91;;;9.31;81.86
56270;BME280;42176;43.240;27.880;2023-02-23T09:27:53;100610.63;;;8.89;82.40
56270;BME280;42176;43.240;27.880;2023-02-23T09:30:21;100599.22;;;8.86;83.00
56270;BME280;42176;43.240;27.880;2023-02-23T09:32:48;100592.84;;;9.13;82.81
56270;BME280;42176;43.240;27.880;2023-02-23T09:35:16;100607.19;;;8.81;79.82
56270;BME280;42176;43.240;27.880;2023-02-23T09:37:54;100587.59;;;9.04;83.37
56270;BME280;42176;43.240;27.880;2023-02-23T09:40:28;100603.75;;;8.65;82.74
56270;BME280;42176;43.240;27.880;2023-02-23T09:47:59;100604.13;;;7.92;88.86
56270;BME280;42176;43.240;27.880;2023-02-23T09:50:30;100625.06;;;8.32;90.88
56270;BME280;42176;43.240;27.880;2023-02-23T09:53:05;100608.22;;;8.57;88.03
56270;BME280;42176;43.240;27.880;2023-02-23T09:55:32;100614.25;;;8.76;88.68
56270;BME280;42176;43.240;27.880;2023-02-23T09:58:05;100604.63;;;8.67;87.88
56270;BME280;42176;43.240;27.880;2023-02-23T10:00:37;100613.41;;;8.74;86.48
56270;BME280;42176;43.240;27.880;2023-02-23T10:03:16;100619.53;;;8.79;88.49
56270;BME280;42176;43.240;27.880;2023-02-23T10:05:47;100621.28;;;8.80;86.17
56270;BME280;42176;43.240;27.880;2023-02-23T10:10:50;100624.06;;;8.63;92.09
56270;BME280;42176;43.240;27.880;2023-02-23T10:13:44;100610.78;;;8.71;90.92
56270;BME280;42176;43.240;27.880;2023-02-23T10:16:17;100625.63;;;8.92;92.04
56270;BME280;42176;43.240;27.880;2023-02-23T10:21:38;100632.84;;;8.66;89.72
56270;BME280;42176;43.240;27.880;2023-02-23T10:24:15;100628.31;;;8.84;91.25
56270;BME280;42176;43.240;27.880;2023-02-23T10:26:50;100628.34;;;8.78;92.35
56270;BME280;42176;43.240;27.880;2023-02-23T10:31:48;100615.16;;;8.76;94.54
56270;BME280;42176;43.240;27.880;2023-02-23T10:34:16;100627.66;;;8.48;95.94
56270;BME280;42176;43.240;27.880;2023-02-23T10:36:47;100626.81;;;8.36;96.50
56270;BME280;42176;43.240;27.880;2023-02-23T10:39:16;100626.81;;;8.36;97.26
56270;BME280;42176;43.240;27.880;2023-02-23T10:41:41;100619.91;;;8.01;98.30
56270;BME280;42176;43.240;27.880;2023-02-23T10:44:17;100621.75;;;7.68;100.00
56270;BME280;42176;43.240;27.880;2023-02-23T10:46:45;100621.66;;;8.02;100.00
56270;BME280;42176;43.240;27.880;2023-02-23T10:49:17;100623.44;;;7.99;99.21
56270;BME280;42176;43.240;27.880;2023-02-23T10:51:47;100627.91;;;7.76;100.00
56270;BME280;42176;43.240;27.880;2023-02-23T10:57:18;100626.00;;;8.16;100.00
56270;BME280;42176;43.240;27.880;2023-02-23T11:02:42;100611.03;;;8.21;98.67
56270;BME280;42176;43.240;27.880;2023-02-23T11:05:28;100591.69;;;8.16;98.72
56270;BME280;42176;43.240;27.880;2023-02-23T11:08:20;100623.31;;;8.31;98.61
56270;BME280;42176;43.240;27.880;2023-02-23T11:13:44;100623.06;;;8.81;96.15
56270;BME280;42176;43.240;27.880;2023-02-23T11:16:12;100619.34;;;9.04;94.52
56270;BME280;42176;43.240;27.880;2023-02-23T11:18:41;100602.66;;;8.97;93.77
56270;BME280;42176;43.240;27.880;2023-02-23T11:21:21;100624.56;;;9.16;91.51
56270;BME280;42176;43.240;27.880;2023-02-23T11:23:50;100630.75;;;9.12;92.56
56270;BME280;42176;43.240;27.880;2023-02-23T11:28:51;100631.88;;;8.80;92.57
56270;BME280;42176;43.240;27.880;2023-02-23T11:31:20;100582.84;;;8.23;95.81
56270;BME280;42176;43.240;27.880;2023-02-23T11:33:46;100623.91;;;8.81;94.92
56270;BME280;42176;43.240;27.880;2023-02-23T11:39:01;100615.13;;;8.78;92.23
56270;BME280;42176;43.240;27.880;2023-02-23T11:41:27;100674.25;;;8.67;92.09
56270;BME280;42176;43.240;27.880;2023-02-23T11:43:57;100620.56;;;8.58;92.48
56270;BME280;42176;43.240;27.880;2023-02-23T11:46:24;100643.50;;;8.43;94.42
56270;BME280;42176;43.240;27.880;2023-02-23T11:48:55;100642.72;;;8.24;95.96
56270;BME280;42176;43.240;27.880;2023-02-23T11:51:38;100631.19;;;8.48;97.36
56270;BME280;42176;43.240;27.880;2023-02-23T11:54:35;100622.34;;;8.51;97.36
56270;BME280;42176;43.240;27.880;2023-02-23T11:57:00;100639.84;;;8.75;95.68
56270;BME280;42176;43.240;27.880;2023-02-23T11:59:33;100640.84;;;8.51;96.57
56270;BME280;42176;43.240;27.880;2023-02-23T12:02:30;100655.72;;;8.69;95.58
56270;BME280;42176;43.240;27.880;2023-02-23T12:05:07;100638.16;;;8.60;95.67
56270;BME280;42176;43.240;27.880;2023-02-23T12:07:39;100641.81;;;8.30;96.66
56270;BME280;42176;43.240;27.880;2023-02-23T12:10:21;100645.41;;;8.10;98.53
56270;BME280;42176;43.240;27.880;2023-02-23T12:12:59;100635.59;;;8.37;98.33
56270;BME280;42176;43.240;27.880;2023-02-23T12:15:49;100644.44;;;8.31;99.24
56270;BME280;42176;43.240;27.880;2023-02-23T12:18:35;100645.28;;;8.41;97.89
56270;BME280;42176;43.240;27.880;2023-02-23T12:21:26;100639.16;;;8.28;98.84
56270;BME280;42176;43.240;27.880;2023-02-23T12:26:33;100639.22;;;8.16;99.51
56270;BME280;42176;43.240;27.880;2023-02-23T12:31:53;100646.31;;;8.04;100.00
56270;BME280;42176;43.240;27.880;2023-02-23T12:40:03;100642.84;;;7.87;100.00
56270;BME280;42176;43.240;27.880;2023-02-23T12:42:43;100663.06;;;7.85;100.00
56270;BME280;42176;43.240;27.880;2023-02-23T12:45:21;100663.06;;;7.92;100.00
56270;BME280;42176;43.240;27.880;2023-02-23T12:50:55;100669.28;;;6.97;100.00
56270;BME280;42176;43.240;27.880;2023-02-23T12:53:39;100666.66;;;7.29;100.00
56270;BME280;42176;43.240;27.880;2023-02-23T13:02:00;100668.38;;;6.96;100.00
56270;BME280;42176;43.240;27.880;2023-02-23T13:07:36;100668.41;;;7.15;100.00
56270;BME280;42176;43.240;27.880;2023-02-23T13:10:32;100672.81;;;7.39;100.00
56270;BME280;42176;43.240;27.880;2023-02-23T13:13:21;100692.16;;;7.10;100.00
56270;BME280;42176;43.240;27.880;2023-02-23T13:15:54;100668.41;;;7.10;100.00
56270;BME280;42176;43.240;27.880;2023-02-23T13:18:31;100674.59;;;7.31;100.00
56270;BME280;42176;43.240;27.880;2023-02-23T13:21:07;100690.38;;;6.97;100.00
56270;BME280;42176;43.240;27.880;2023-02-23T13:28:50;100677.22;;;7.17;100.00
56270;BME280;42176;43.240;27.880;2023-02-23T13:31:25;100664.88;;;7.13;100.00
56270;BME280;42176;43.240;27.880;2023-02-23T13:33:53;100668.38;;;6.85;100.00
56270;BME280;42176;43.240;27.880;2023-02-23T13:36:20;100678.97;;;7.10;100.00
56270;BME280;42176;43.240;27.880;2023-02-23T13:44:14;100678.94;;;7.65;100.00
56270;BME280;42176;43.240;27.880;2023-02-23T13:47:02;100700.88;;;6.78;100.00
56270;BME280;42176;43.240;27.880;2023-02-23T13:49:39;100693.84;;;6.86;100.00
56270;BME280;42176;43.240;27.880;2023-02-23T13:52:21;100690.38;;;7.06;100.00
56270;BME280;42176;43.240;27.880;2023-02-23T13:54:53;100700.94;;;7.12;100.00
56270;BME280;42176;43.240;27.880;2023-02-23T13:57:22;100697.44;;;7.13;100.00
56270;BME280;42176;43.240;27.880;2023-02-23T13:59:48;100697.38;;;7.01;100.00
56270;BME280;42176;43.240;27.880;2023-02-23T14:02:38;100699.91;;;6.56;100.00
56270;BME280;42176;43.240;27.880;2023-02-23T14:05:26;100700.00;;;6.87;100.00
56270;BME280;42176;43.240;27.880;2023-02-23T14:07:53;100700.91;;;6.97;100.00
56270;BME280;42176;43.240;27.880;2023-02-23T14:10:25;100723.75;;;7.01;100.00
56270;BME280;42176;43.240;27.880;2023-02-23T14:18:28;100730.72;;;6.74;100.00
56270;BME280;42176;43.240;27.880;2023-02-23T14:24:02;100720.16;;;6.74;100.00
56270;BME280;42176;43.240;27.880;2023-02-23T14:29:20;100725.28;;;6.31;100.00
56270;BME280;42176;43.240;27.880;2023-02-23T14:31:54;100728.81;;;6.36;100.00
56270;BME280;42176;43.240;27.880;2023-02-23T14:34:20;100712.94;;;6.20;100.00
56270;BME280;42176;43.240;27.880;2023-02-23T14:36:49;100721.50;;;5.94;100.00
56270;BME280;42176;43.240;27.880;2023-02-23T14:39:25;100725.22;;;6.21;100.00
56270;BME280;42176;43.240;27.880;2023-02-23T14:41:58;100707.63;;;6.14;100.00
56270;BME280;42176;43.240;27.880;2023-02-23T14:46:53;100723.25;;;5.89;100.00
56270;BME280;42176;43.240;27.880;2023-02-23T14:49:25;100738.69;;;5.43;100.00
56270;BME280;42176;43.240;27.880;2023-02-23T14:51:52;100729.38;;;5.88;100.00
56270;BME280;42176;43.240;27.880;2023-02-23T14:54:36;100717.97;;;5.92;100.00